• Join FlightAware (Why Join?)
  • Login
  • US Flag GB Flag 
00:16 EDT


 

Airport Tracker/Info


-or-


 

Live Flight TrackerFlight Track Log ✈ FLG4208 ✈ 29-Apr-2013 ✈ KAZO - KDTW

Flight Track Log - Related Links

Times and Time Zones

All times are in EDT time to prevent confusion due to time zone crossing. See the FLG4208 flight status page for this flight to view local times or setup timezone preferences in your user account.

Time Position Orientation Groundspeed Altitude Reporting Facility
EDT Latitude Longitude Course Direction KTS MPH feet Rate Location/Type
11:52 42.1703 -85.4383 115° Southeast 242 278 5,000  Level Chicago Center
11:52 42.1550 -85.3483 103° East 258 297 7,300 2,580 Climbing Cleveland Center
11:53 42.1719 -85.3149 103° East  Level FlightAware Approximate
11:53 42.1422 -85.2519 100° East 258 297 10,000  Level Cleveland Center
11:54 42.1630 -85.2327 106° East  Level FlightAware Approximate
11:54 42.1242 -85.1303 101° East 290 334 11,000  Level Cleveland Center
11:55 42.1446 -85.1467 106° East  Level FlightAware Approximate
11:55 42.1003 -84.9942 103° East 335 386 11,000  Level Cleveland Center
11:56 42.1223 -85.0429 106° East  Level FlightAware Approximate
11:56 42.0803 -84.8614 101° East 360 414 11,000  Level Cleveland Center
11:57 42.0456 -84.7303 110° East 366 421 11,000  Level Cleveland Center
11:58 42.0042 -84.6017 113° Southeast 371 427 11,000  Level Cleveland Center
11:59 41.9650 -84.4708 112° Southeast 377 434 11,000  Level Cleveland Center
12:00 41.9233 -84.3425 114° Southeast 377 434 11,000  Level Cleveland Center
12:01 41.8889 -84.2431 115° Southeast 373 429 11,000  Level Cleveland Center
12:01 41.8756 -84.2058 116° Southeast 377 434 11,000  Level Cleveland Center
12:02 41.8511 -84.1236 112° Southeast 376 433 11,000  Level Cleveland Center
12:02 41.8378 -84.0783 112° Southeast 372 428 11,000  Level Cleveland Center
12:03 41.8572 -83.9931 73° East 365 420 11,000  Level Cleveland Center
12:03 41.8728 -83.9547 61° Northeast 333 383 11,000  Level Cleveland Center
12:04 41.9231 -83.8736 50° Northeast 364 419 11,000  Level Cleveland Center
12:04 41.9364 -83.8464 57° Northeast 327 376 11,000  Level Cleveland Center
12:05 41.9994 -83.7603 45° Northeast 363 418 11,000  Level Cleveland Center
12:06 42.0617 -83.6933 39° Northeast 362 417 11,000  Level Cleveland Center
12:06 42.0792 -83.6578 56° Northeast 348 400 11,000  Level Cleveland Center
12:07 42.1200 -83.5311 66° East 348 400 11,000  Level Cleveland Center
12:08 42.1411 -83.4394 73° East 363 418 11,000  Level Cleveland Center
12:08 42.1464 -83.4033 79° East 357 411 11,000  Level Cleveland Center
12:09 42.1692 -83.3203 70° East 285 328 11,000  Level Cleveland Center
12:09 42.1675 -83.3033 98° East 338 389 11,000 -1,260 Level Cleveland Center
12:10 42.1961 -83.2319 62° Northeast 219 252 9,600 -1,680 Descending Cleveland Center
12:11 42.2533 -83.1922 27° Northeast 223 257 8,000 -1,260 Descending Cleveland Center
12:12 42.3086 -83.1494 30° Northeast 231 266 7,100 -960 Descending Cleveland Center
12:13 42.3617 -83.1039 32° Northeast 226 260 6,100 -780 Descending Cleveland Center
12:14 42.4069 -83.1336 334° Northwest 207 238 5,700 -600 Descending Cleveland Center
12:15 42.3972 -83.1953 258° West 184 212 5,000 -960 Descending Cleveland Center
12:16 42.3544 -83.2356 215° Southwest 192 221 3,700 -1,320 Descending Cleveland Center